createdAt,value
2022-09-12T00:01:04.719Z,4.90
2022-09-12T00:03:32.955Z,4.30
2022-09-12T00:06:02.514Z,4.07
2022-09-12T00:08:30.722Z,3.57
2022-09-12T00:10:58.950Z,4.43
2022-09-12T00:13:27.172Z,5.20
2022-09-12T00:15:55.372Z,4.70
2022-09-12T00:18:23.583Z,4.57
2022-09-12T00:20:51.789Z,4.17
2022-09-12T00:23:21.346Z,4.50
2022-09-12T00:25:50.441Z,3.70
2022-09-12T00:28:19.901Z,3.50
2022-09-12T00:30:48.960Z,4.60
2022-09-12T00:33:18.026Z,3.40
2022-09-12T00:35:46.674Z,3.60
2022-09-12T00:38:15.303Z,4.23
2022-09-12T00:40:44.973Z,3.30
2022-09-12T00:43:14.976Z,3.43
2022-09-12T00:45:43.635Z,3.33
2022-09-12T00:48:18.611Z,3.47
2022-09-12T00:50:46.885Z,3.90
2022-09-12T00:53:15.163Z,2.83
2022-09-12T00:55:45.104Z,4.60
2022-09-12T00:58:15.453Z,5.30
2022-09-12T01:00:43.863Z,4.27
2022-09-12T01:03:14.688Z,5.23
2022-09-12T01:05:46.400Z,4.10
2022-09-12T01:08:14.752Z,5.67
2022-09-12T01:10:44.230Z,5.10
2022-09-12T01:13:14.588Z,4.17
2022-09-12T01:15:42.948Z,3.60
2022-09-12T01:18:14.711Z,3.57
2022-09-12T01:21:03.763Z,3.93
2022-09-12T01:23:46.839Z,5.03
2022-09-12T01:26:25.071Z,5.77
2022-09-12T01:29:12.868Z,3.80
2022-09-12T01:31:44.496Z,4.20
2022-09-12T01:34:18.794Z,5.57
2022-09-12T01:36:53.842Z,4.03
2022-09-12T01:39:27.776Z,3.80
2022-09-12T01:41:57.438Z,5.30
2022-09-12T01:44:29.141Z,3.60
2022-09-12T01:47:01.617Z,4.27
2022-09-12T01:49:33.131Z,4.10
2022-09-12T01:52:04.569Z,4.20
2022-09-12T01:54:35.518Z,4.00
2022-09-12T01:57:05.838Z,4.30
2022-09-12T01:59:36.758Z,4.23
2022-09-12T02:02:08.987Z,3.53
2022-09-12T02:04:38.589Z,3.40
2022-09-12T02:07:10.523Z,3.60
2022-09-12T02:09:40.344Z,4.00
2022-09-12T02:12:10.800Z,4.43
2022-09-12T02:14:42.212Z,3.40
2022-09-12T02:17:13.401Z,3.73
2022-09-12T02:19:43.521Z,3.30
2022-09-12T02:22:14.309Z,4.07
2022-09-12T02:24:44.647Z,4.10
2022-09-12T02:27:15.760Z,4.40
2022-09-12T02:29:44.599Z,3.13
2022-09-12T02:32:17.919Z,3.97
2022-09-12T02:34:49.465Z,3.37
2022-09-12T02:37:25.219Z,5.57
2022-09-12T02:39:55.252Z,4.30
2022-09-12T02:42:23.779Z,3.57
2022-09-12T02:44:52.827Z,3.17
2022-09-12T02:47:24.904Z,4.70
2022-09-12T02:49:54.242Z,3.03
2022-09-12T02:52:22.918Z,3.97
2022-09-12T02:54:51.908Z,3.83
2022-09-12T02:57:23.026Z,5.20
2022-09-12T02:59:52.058Z,3.97
2022-09-12T03:02:28.217Z,3.57
2022-09-12T03:05:14.485Z,3.53
2022-09-12T03:07:58.959Z,4.77
2022-09-12T03:10:29.769Z,4.00
2022-09-12T03:13:03.084Z,3.90
2022-09-12T03:15:39.846Z,4.60
2022-09-12T03:18:14.397Z,3.10
2022-09-12T03:20:49.092Z,3.90
2022-09-12T03:23:20.936Z,4.17
2022-09-12T03:25:50.907Z,3.40
2022-09-12T03:28:20.097Z,3.70
2022-09-12T03:30:49.312Z,2.93
2022-09-12T03:33:20.237Z,4.07
2022-09-12T03:35:49.164Z,3.90
2022-09-12T03:38:17.555Z,4.60
2022-09-12T03:40:47.781Z,4.73
2022-09-12T03:43:17.645Z,3.60
2022-09-12T03:45:45.888Z,4.17
2022-09-12T03:48:14.101Z,3.70
2022-09-12T03:50:43.691Z,4.50
2022-09-12T03:53:15.279Z,3.70
2022-09-12T03:55:45.363Z,4.13
2022-09-12T03:58:13.559Z,3.43
2022-09-12T04:00:42.943Z,3.80
2022-09-12T04:03:11.163Z,3.13
2022-09-12T04:05:39.373Z,3.40
2022-09-12T04:08:08.927Z,5.33
2022-09-12T04:10:37.147Z,3.97
2022-09-12T04:13:05.483Z,3.23
2022-09-12T04:15:33.743Z,4.50
2022-09-12T04:18:05.706Z,4.70
2022-09-12T04:20:34.372Z,3.47
2022-09-12T04:23:02.601Z,3.97
2022-09-12T04:25:32.397Z,5.10
2022-09-12T04:28:00.588Z,3.27
2022-09-12T04:30:28.861Z,4.83
2022-09-12T04:32:57.127Z,3.50
2022-09-12T04:35:25.331Z,4.23
2022-09-12T04:37:53.537Z,3.50
2022-09-12T04:40:21.750Z,3.13
2022-09-12T04:42:51.305Z,3.97
2022-09-12T04:45:19.659Z,4.63
2022-09-12T04:47:47.865Z,3.57
2022-09-12T04:50:16.175Z,4.10
2022-09-12T04:52:44.419Z,3.97
2022-09-12T04:55:12.634Z,4.80
2022-09-12T04:57:40.851Z,3.40
2022-09-12T05:00:14.895Z,3.50
2022-09-12T05:02:43.567Z,4.80
2022-09-12T05:05:11.876Z,3.60
2022-09-12T05:07:40.160Z,4.10
2022-09-12T05:10:08.934Z,4.50
2022-09-12T05:12:37.288Z,3.87
2022-09-12T05:15:05.750Z,3.80
2022-09-12T05:17:35.420Z,5.27
2022-09-12T05:20:04.053Z,4.00
2022-09-12T05:22:32.267Z,4.77
2022-09-12T05:25:00.509Z,5.07
2022-09-12T05:27:29.105Z,4.43
2022-09-12T05:29:57.342Z,4.20
2022-09-12T05:32:25.557Z,3.83
2022-09-12T05:34:55.147Z,4.13
2022-09-12T05:37:23.799Z,4.00
2022-09-12T05:39:52.781Z,3.30
2022-09-12T05:42:21.021Z,3.63
2022-09-12T05:44:49.215Z,3.43
2022-09-12T05:47:18.907Z,3.00
2022-09-12T05:49:47.939Z,3.23
2022-09-12T05:52:17.739Z,3.87
2022-09-12T05:54:46.729Z,4.70
2022-09-12T05:57:14.960Z,2.40
2022-09-12T05:59:43.279Z,3.80
2022-09-12T06:02:12.992Z,4.77
2022-09-12T06:04:41.919Z,3.27
2022-09-12T06:07:10.588Z,3.80
2022-09-12T06:09:40.192Z,4.40
2022-09-12T06:12:08.663Z,5.43
2022-09-12T06:14:36.893Z,3.33
2022-09-12T06:17:05.423Z,4.77
2022-09-12T06:19:33.649Z,4.83
2022-09-12T06:22:01.854Z,4.13
2022-09-12T06:24:30.075Z,4.73
2022-09-12T06:26:59.655Z,4.40
2022-09-12T06:29:27.876Z,3.77
2022-09-12T06:31:56.118Z,4.20
2022-09-12T06:34:24.395Z,4.37
2022-09-12T06:36:52.619Z,3.77
2022-09-12T06:39:21.670Z,4.63
2022-09-12T06:41:50.161Z,4.13
2022-09-12T06:44:20.855Z,5.27
2022-09-12T06:46:49.508Z,4.97
2022-09-12T06:49:18.518Z,5.00
2022-09-12T06:51:46.829Z,4.83
2022-09-12T06:54:15.654Z,5.10
2022-09-12T06:56:44.046Z,4.00
2022-09-12T06:59:12.417Z,5.13
2022-09-12T07:01:42.693Z,5.37
2022-09-12T07:04:11.411Z,5.40
2022-09-12T07:06:40.580Z,5.00
2022-09-12T07:09:11.309Z,6.30
2022-09-12T07:11:40.811Z,4.23
2022-09-12T07:14:10.234Z,6.47
2022-09-12T07:16:38.493Z,3.97
2022-09-12T07:19:09.120Z,5.97
2022-09-12T07:21:39.796Z,4.27
2022-09-12T07:24:09.775Z,5.33
2022-09-12T07:26:38.388Z,4.67
2022-09-12T07:29:35.241Z,4.00
2022-09-12T07:31:55.713Z,4.33
2022-09-12T07:34:25.250Z,5.53
2022-09-12T07:36:53.607Z,4.47
2022-09-12T07:39:21.927Z,3.90
2022-09-12T07:41:50.267Z,5.23
2022-09-12T07:44:18.471Z,5.17
2022-09-12T07:46:46.708Z,3.83
2022-09-12T07:49:15.060Z,4.47
2022-09-12T07:51:44.635Z,4.43
2022-09-12T07:54:12.863Z,3.70
2022-09-12T07:56:41.293Z,4.27
2022-09-12T07:59:09.543Z,4.37
2022-09-12T08:01:39.379Z,3.33
2022-09-12T08:04:08.196Z,3.90
2022-09-12T08:06:37.061Z,3.83
2022-09-12T08:09:07.763Z,3.83
2022-09-12T08:11:36.058Z,3.30
2022-09-12T08:14:05.654Z,3.37
2022-09-12T08:16:35.075Z,3.57
2022-09-12T08:19:04.333Z,3.40
2022-09-12T08:21:33.554Z,2.73
2022-09-12T08:24:02.575Z,2.80
2022-09-12T08:26:32.811Z,3.10
2022-09-12T08:29:01.212Z,2.87
2022-09-12T08:31:31.833Z,2.10
2022-09-12T08:34:00.811Z,2.70
2022-09-12T08:36:29.860Z,2.03
2022-09-12T08:39:00.336Z,3.37
2022-09-12T08:41:34.759Z,2.07
2022-09-12T08:44:20.872Z,2.80
2022-09-12T08:46:53.911Z,2.07
2022-09-12T08:49:27.322Z,2.23
2022-09-12T08:51:56.364Z,1.70
2022-09-12T08:54:26.739Z,2.00
2022-09-12T08:57:00.072Z,1.77
2022-09-12T08:59:28.294Z,2.10
2022-09-12T09:01:58.698Z,2.23
2022-09-12T09:04:34.115Z,2.63
2022-09-12T09:07:17.391Z,1.90
2022-09-12T09:09:52.535Z,2.23
2022-09-12T09:12:26.559Z,2.73
2022-09-12T09:15:02.759Z,2.47
2022-09-12T09:17:33.238Z,1.73
2022-09-12T09:20:05.464Z,2.00
2022-09-12T09:22:38.572Z,2.20
2022-09-12T09:25:09.721Z,1.80
2022-09-12T09:27:43.001Z,1.97
2022-09-12T09:30:16.474Z,2.10
2022-09-12T09:32:45.817Z,1.90
2022-09-12T09:35:16.653Z,1.57
2022-09-12T09:37:45.780Z,1.87
2022-09-12T09:40:20.684Z,1.97
2022-09-12T09:42:54.961Z,1.60
2022-09-12T09:45:24.929Z,1.60
2022-09-12T09:47:54.919Z,2.47
2022-09-12T09:50:23.298Z,2.30
2022-09-12T09:52:52.518Z,1.50
2022-09-12T09:55:23.655Z,1.60
2022-09-12T09:57:53.583Z,1.77
2022-09-12T10:00:24.883Z,1.67
2022-09-12T10:03:00.883Z,1.67
2022-09-12T10:05:29.423Z,1.00
2022-09-12T10:07:57.756Z,1.80
2022-09-12T10:10:26.477Z,1.60
2022-09-12T10:13:09.058Z,1.73
2022-09-12T10:15:38.149Z,1.60
2022-09-12T10:18:06.920Z,1.30
2022-09-12T10:20:37.515Z,1.60
2022-09-12T10:23:21.857Z,1.83
2022-09-12T10:25:50.440Z,1.53
2022-09-12T10:28:27.069Z,1.50
2022-09-12T10:30:56.039Z,1.80
2022-09-12T10:33:25.476Z,1.50
2022-09-12T10:35:54.933Z,1.60
2022-09-12T10:38:24.334Z,1.67
2022-09-12T10:40:58.086Z,1.33
2022-09-12T10:43:29.747Z,1.20
2022-09-12T10:46:01.343Z,1.20
2022-09-12T10:48:31.691Z,1.60
2022-09-12T10:51:00.049Z,1.20
2022-09-12T10:53:33.759Z,1.30
2022-09-12T10:56:08.835Z,1.60
2022-09-12T10:58:51.958Z,1.13
2022-09-12T11:01:27.828Z,1.57
2022-09-12T11:04:07.350Z,1.40
2022-09-12T11:06:39.503Z,1.30
2022-09-12T11:09:11.762Z,1.40
2022-09-12T11:11:47.369Z,1.50
2022-09-12T11:14:23.500Z,1.20
2022-09-12T11:16:58.911Z,1.40
2022-09-12T11:19:33.407Z,1.40
2022-09-12T11:22:16.852Z,1.20
2022-09-12T11:24:51.311Z,1.10
2022-09-12T11:27:27.014Z,1.23
2022-09-12T11:29:59.475Z,1.10
2022-09-12T11:32:42.358Z,1.30
2022-09-12T11:35:17.646Z,1.30
2022-09-12T11:37:57.256Z,1.10
2022-09-12T11:40:29.997Z,1.07
2022-09-12T11:43:01.385Z,1.17
2022-09-12T11:45:31.148Z,1.20
2022-09-12T11:48:03.873Z,1.30
2022-09-12T11:50:33.440Z,1.07
2022-09-12T11:53:05.021Z,1.13
2022-09-12T11:55:38.294Z,1.10
2022-09-12T11:58:06.546Z,1.30
2022-09-12T12:00:38.046Z,0.77
2022-09-12T12:03:10.914Z,0.80
2022-09-12T12:05:42.843Z,0.80
2022-09-12T12:08:12.186Z,1.20
2022-09-12T12:10:42.795Z,0.90
2022-09-12T12:13:18.322Z,0.80
2022-09-12T12:15:49.024Z,1.10
2022-09-12T12:18:21.070Z,1.00
2022-09-12T12:20:49.406Z,0.93
2022-09-12T12:23:25.158Z,1.00
2022-09-12T12:25:54.540Z,1.10
2022-09-12T12:28:41.835Z,0.93
2022-09-12T12:31:10.690Z,0.93
2022-09-12T12:34:04.631Z,1.17
2022-09-12T12:36:38.552Z,1.40
2022-09-12T12:39:21.731Z,1.00
2022-09-12T12:41:50.233Z,0.93
2022-09-12T12:44:37.329Z,0.87
2022-09-12T12:47:17.621Z,1.03
2022-09-12T12:49:53.071Z,1.10
2022-09-12T12:52:21.711Z,1.83
2022-09-12T12:54:54.347Z,1.20
2022-09-12T12:57:40.541Z,1.23
2022-09-12T13:00:10.992Z,1.23
2022-09-12T13:02:42.141Z,0.97
2022-09-12T13:05:21.699Z,1.07
2022-09-12T13:07:54.846Z,1.07
2022-09-12T13:10:24.962Z,1.07
2022-09-12T13:12:53.825Z,1.30
2022-09-12T13:15:48.611Z,1.10
2022-09-12T13:18:20.043Z,1.90
2022-09-12T13:20:52.728Z,0.93
2022-09-12T13:23:25.349Z,1.33
2022-09-12T13:25:57.090Z,1.33
2022-09-12T13:28:26.369Z,1.20
2022-09-12T13:31:00.948Z,1.10
2022-09-12T13:33:36.556Z,1.17
2022-09-12T13:36:23.873Z,1.40
2022-09-12T13:38:59.633Z,1.23
2022-09-12T13:41:36.849Z,1.00
2022-09-12T13:44:06.575Z,1.37
2022-09-12T13:46:35.770Z,1.20
2022-09-12T13:49:09.175Z,1.20
2022-09-12T13:51:37.535Z,0.90
2022-09-12T13:54:07.882Z,0.90
2022-09-12T13:56:36.190Z,0.87
2022-09-12T13:59:05.399Z,0.90
2022-09-12T14:01:40.868Z,1.33
2022-09-12T14:04:37.134Z,0.80
2022-09-12T14:07:11.450Z,1.13
2022-09-12T14:09:42.373Z,1.13
2022-09-12T14:12:22.231Z,0.80
2022-09-12T14:14:51.965Z,0.90
2022-09-12T14:17:23.801Z,0.87
2022-09-12T14:19:52.781Z,1.00
2022-09-12T14:22:21.245Z,1.00
2022-09-12T14:24:51.777Z,1.20
2022-09-12T14:27:21.113Z,0.80
2022-09-12T14:29:53.466Z,0.83
2022-09-12T14:32:24.250Z,1.17
2022-09-12T14:35:09.223Z,1.07
2022-09-12T14:37:37.524Z,0.83
2022-09-12T14:40:17.632Z,1.00
2022-09-12T14:42:46.749Z,0.80
2022-09-12T14:45:18.045Z,0.97
2022-09-12T14:47:50.704Z,0.90
2022-09-12T14:50:20.478Z,1.10
2022-09-12T14:53:03.877Z,0.73
2022-09-12T14:55:35.091Z,0.63
2022-09-12T14:58:13.480Z,0.80
2022-09-12T15:00:53.742Z,0.80
2022-09-12T15:03:25.969Z,1.07
2022-09-12T15:05:54.343Z,0.93
2022-09-12T15:08:22.890Z,0.70
2022-09-12T15:10:52.674Z,0.80
2022-09-12T15:13:22.209Z,0.90
2022-09-12T15:15:51.851Z,0.80
2022-09-12T15:18:20.561Z,0.90
2022-09-12T15:20:50.594Z,0.77
2022-09-12T15:23:26.200Z,0.80
2022-09-12T15:25:55.919Z,0.87
2022-09-12T15:28:25.229Z,0.63
2022-09-12T15:30:54.838Z,0.97
2022-09-12T15:33:24.738Z,0.90
2022-09-12T15:35:53.822Z,0.80
2022-09-12T15:38:26.313Z,0.70
2022-09-12T15:40:57.248Z,0.70
2022-09-12T15:43:26.250Z,0.60
2022-09-12T15:45:54.801Z,0.93
2022-09-12T15:48:23.229Z,0.70
2022-09-12T15:50:51.523Z,0.80
2022-09-12T15:53:19.884Z,0.70
2022-09-12T15:55:48.308Z,0.80
2022-09-12T15:58:17.951Z,0.77
2022-09-12T16:00:46.431Z,0.80
2022-09-12T16:03:22.907Z,1.40
2022-09-12T16:05:51.458Z,1.10
2022-09-12T16:08:19.820Z,0.83
2022-09-12T16:10:49.181Z,1.20
2022-09-12T16:13:18.911Z,1.60
2022-09-12T16:15:47.236Z,1.13
2022-09-12T16:18:15.725Z,1.17
2022-09-12T16:20:44.280Z,1.27
2022-09-12T16:23:13.362Z,0.90
2022-09-12T16:25:41.733Z,0.90
2022-09-12T16:28:10.075Z,0.67
2022-09-12T16:30:39.792Z,1.03
2022-09-12T16:33:08.683Z,0.90
2022-09-12T16:35:37.107Z,1.30
2022-09-12T16:38:05.444Z,1.00
2022-09-12T16:40:33.819Z,1.00
2022-09-12T16:43:02.198Z,1.70
2022-09-12T16:45:30.578Z,1.00
2022-09-12T16:48:00.264Z,1.10
2022-09-12T16:50:29.287Z,1.00
2022-09-12T16:52:57.654Z,0.93
2022-09-12T16:55:25.985Z,1.40
2022-09-12T16:57:54.808Z,0.90
2022-09-12T17:00:23.202Z,1.50
2022-09-12T17:02:51.632Z,1.13
2022-09-12T17:05:21.310Z,1.43
2022-09-12T17:07:49.618Z,1.97
2022-09-12T17:10:18.052Z,2.23
2022-09-12T17:12:46.346Z,1.23
2022-09-12T17:15:14.678Z,1.00
2022-09-12T17:17:43.009Z,1.20
2022-09-12T17:20:11.378Z,0.73
2022-09-12T17:22:41.081Z,1.27
2022-09-12T17:25:10.016Z,1.00
2022-09-12T17:27:38.358Z,1.27
2022-09-12T17:30:07.231Z,1.50
2022-09-12T17:32:35.620Z,1.53
2022-09-12T17:35:03.966Z,1.10
2022-09-12T17:37:32.267Z,1.20
2022-09-12T17:40:02.522Z,1.50
2022-09-12T17:42:31.546Z,1.57
2022-09-12T17:44:59.867Z,1.07
2022-09-12T17:47:28.187Z,1.30
2022-09-12T17:50:09.233Z,1.40
2022-09-12T17:52:44.618Z,2.07
2022-09-12T17:55:15.083Z,1.27
2022-09-12T17:57:44.219Z,1.27
2022-09-12T18:00:13.210Z,1.20
2022-09-12T18:02:40.659Z,1.17
2022-09-12T18:05:10.284Z,1.50
2022-09-12T18:07:42.159Z,1.60
2022-09-12T18:10:13.817Z,1.50
2022-09-12T18:12:42.167Z,1.73
2022-09-12T18:15:11.038Z,1.20
2022-09-12T18:17:40.879Z,1.10
2022-09-12T18:20:09.621Z,1.50
2022-09-12T18:22:38.071Z,2.03
2022-09-12T18:25:06.741Z,1.97
2022-09-12T18:27:36.508Z,1.30
2022-09-12T18:30:20.692Z,1.63
2022-09-12T18:32:50.145Z,1.53
2022-09-12T18:35:18.738Z,1.40
2022-09-12T18:37:47.110Z,1.30
2022-09-12T18:40:15.615Z,2.20
2022-09-12T18:42:45.446Z,1.40
2022-09-12T18:45:13.845Z,1.50
2022-09-12T18:47:42.313Z,1.37
2022-09-12T18:50:11.172Z,1.70
2022-09-12T18:52:39.527Z,1.50
2022-09-12T18:55:07.988Z,1.90
2022-09-12T18:57:36.431Z,1.40
2022-09-12T19:00:11.794Z,1.40
2022-09-12T19:02:40.785Z,1.80
2022-09-12T19:05:09.489Z,1.80
2022-09-12T19:07:38.184Z,1.83
2022-09-12T19:10:06.865Z,1.97
2022-09-12T19:12:35.435Z,1.57
2022-09-12T19:15:04.882Z,1.80
2022-09-12T19:17:34.618Z,1.20
2022-09-12T19:20:03.215Z,1.60
2022-09-12T19:22:31.597Z,1.80
2022-09-12T19:24:59.884Z,1.67
2022-09-12T19:27:28.349Z,1.20
2022-09-12T19:29:56.804Z,1.40
2022-09-12T19:32:25.179Z,1.60
2022-09-12T19:34:57.874Z,1.93
2022-09-12T19:37:26.461Z,1.50
2022-09-12T19:39:54.915Z,1.63
2022-09-12T19:42:23.342Z,1.30
2022-09-12T19:44:55.725Z,2.10
2022-09-12T19:47:25.135Z,1.77
2022-09-12T19:49:54.831Z,1.60
2022-09-12T19:52:23.106Z,2.13
2022-09-12T19:54:51.447Z,1.87
2022-09-12T19:57:19.811Z,1.27
2022-09-12T19:59:48.214Z,1.63
2022-09-12T20:02:16.569Z,1.83
2022-09-12T20:04:44.977Z,2.37
2022-09-12T20:07:15.209Z,1.33
2022-09-12T20:09:43.511Z,1.47
2022-09-12T20:12:11.840Z,2.80
2022-09-12T20:14:40.168Z,1.43
2022-09-12T20:17:08.649Z,1.93
2022-09-12T20:19:37.244Z,1.33
2022-09-12T20:22:05.519Z,1.60
2022-09-12T20:24:35.322Z,1.57
2022-09-12T20:27:03.704Z,1.60
2022-09-12T20:29:32.143Z,1.60
2022-09-12T20:32:00.632Z,2.10
2022-09-12T20:34:29.029Z,2.20
2022-09-12T20:36:57.337Z,1.50
2022-09-12T20:39:25.704Z,1.57
2022-09-12T20:41:55.434Z,1.83
2022-09-12T20:44:23.826Z,1.93
2022-09-12T20:46:52.559Z,2.83
2022-09-12T20:49:21.109Z,1.60
2022-09-12T20:51:49.421Z,2.40
2022-09-12T20:54:18.128Z,1.83
2022-09-12T20:56:46.528Z,1.47
2022-09-12T20:59:16.319Z,1.53
2022-09-12T21:01:45.119Z,1.90
2022-09-12T21:04:15.258Z,2.50
2022-09-12T21:06:43.634Z,1.90
2022-09-12T21:09:11.876Z,1.83
2022-09-12T21:11:40.120Z,2.30
2022-09-12T21:14:08.498Z,1.90
2022-09-12T21:16:38.742Z,2.17
2022-09-12T21:19:07.923Z,2.30
2022-09-12T21:21:36.335Z,1.97
2022-09-12T21:24:05.208Z,1.40
2022-09-12T21:26:33.934Z,2.50
2022-09-12T21:29:02.353Z,2.40
2022-09-12T21:31:30.823Z,1.47
2022-09-12T21:34:00.537Z,1.60
2022-09-12T21:36:28.848Z,1.63
2022-09-12T21:38:59.250Z,2.27
2022-09-12T21:41:28.677Z,1.50
2022-09-12T21:43:56.991Z,1.40
2022-09-12T21:46:25.403Z,2.00
2022-09-12T21:48:53.849Z,1.93
2022-09-12T21:51:23.694Z,2.60
2022-09-12T21:53:52.096Z,1.63
2022-09-12T21:56:20.902Z,1.60
2022-09-12T21:58:49.234Z,1.87
2022-09-12T22:01:17.586Z,2.00
2022-09-12T22:03:46.063Z,1.70
2022-09-12T22:06:16.394Z,1.63
2022-09-12T22:08:47.471Z,2.47
2022-09-12T22:11:15.810Z,1.93
2022-09-12T22:13:44.352Z,1.80
2022-09-12T22:16:13.111Z,2.53
2022-09-12T22:18:41.614Z,3.10
2022-09-12T22:21:12.363Z,1.43
2022-09-12T22:23:58.369Z,2.10
2022-09-12T22:26:28.199Z,2.30
2022-09-12T22:28:56.615Z,1.70
2022-09-12T22:31:26.529Z,2.47
2022-09-12T22:33:57.024Z,1.83
2022-09-12T22:36:30.450Z,2.60
2022-09-12T22:38:59.522Z,2.13
2022-09-12T22:41:29.428Z,2.47
2022-09-12T22:43:58.439Z,2.07
2022-09-12T22:46:27.225Z,1.93
2022-09-12T22:48:56.000Z,3.20
2022-09-12T22:51:24.305Z,1.57
2022-09-12T22:53:52.570Z,1.57
2022-09-12T22:56:20.943Z,1.90
2022-09-12T22:58:50.820Z,2.60
2022-09-12T23:01:19.620Z,2.50
2022-09-12T23:03:48.139Z,2.10
2022-09-12T23:06:16.741Z,2.00
2022-09-12T23:08:45.087Z,2.07
2022-09-12T23:11:14.240Z,1.73
2022-09-12T23:13:44.101Z,2.40
2022-09-12T23:16:16.057Z,2.20
2022-09-12T23:18:44.419Z,2.80
2022-09-12T23:21:14.285Z,2.07
2022-09-12T23:23:42.602Z,1.87
2022-09-12T23:26:12.479Z,1.50
2022-09-12T23:28:41.342Z,1.97
2022-09-12T23:31:10.721Z,1.60
2022-09-12T23:33:40.624Z,1.80
2022-09-12T23:36:14.261Z,1.90
2022-09-12T23:38:43.454Z,2.00
2022-09-12T23:41:12.357Z,1.77
2022-09-12T23:43:40.901Z,1.40
2022-09-12T23:46:09.301Z,2.00
2022-09-12T23:48:37.792Z,1.70
2022-09-12T23:51:07.738Z,1.97
2022-09-12T23:53:36.680Z,2.63
2022-09-12T23:56:05.375Z,1.87
2022-09-12T23:58:34.078Z,2.17
